Terminal Aerodrome Forecast
Issued by NWS Atlanta, GA

Home | Current Version | Previous Version | Text Only | Print | Product List | Glossary On
Versions: 1 2 3 4 5 6 7 8 9 10 11 12 13 14 15 16 17 18 19 20 21 22 23 24 25 26 27 28 29 30 31 32 33 34
000
FTAK31 PAJN 222300
TAFAHN
TAF
PAHN 222335Z 2300/2324 12006KT P6SM BKN150
     FM230600 VRB03KT P6SM VCSH SCT050 BKN100
     FM231000 31005KT P6SM VCSH SCT040 OVC080
     FM231400 31005KT P6SM SCT050 BKN100
     FM232100 12005KT P6SM BKN100
      AMD LTD TO CLD VIS AND WIND=

USA.gov is the U.S. government's official web portal to all federal, state and local government web resources and services.